sensor_id;sensor_type;location;lat;lon;timestamp;P1;durP1;ratioP1;P2;durP2;ratioP2
23634;SDS011;11994;51.038;16.974;2022-09-03T00:02:52;4.12;;;1.60;;
23634;SDS011;11994;51.038;16.974;2022-09-03T00:05:07;4.47;;;1.47;;
23634;SDS011;11994;51.038;16.974;2022-09-03T00:07:59;6.62;;;1.70;;
23634;SDS011;11994;51.038;16.974;2022-09-03T00:10:58;3.77;;;1.60;;
23634;SDS011;11994;51.038;16.974;2022-09-03T00:13:49;5.75;;;1.52;;
23634;SDS011;11994;51.038;16.974;2022-09-03T00:17:15;4.03;;;1.42;;
23634;SDS011;11994;51.038;16.974;2022-09-03T00:19:29;3.40;;;1.60;;
23634;SDS011;11994;51.038;16.974;2022-09-03T00:22:03;2.55;;;1.35;;
23634;SDS011;11994;51.038;16.974;2022-09-03T00:24:35;4.55;;;1.60;;
23634;SDS011;11994;51.038;16.974;2022-09-03T00:27:05;5.10;;;1.50;;
23634;SDS011;11994;51.038;16.974;2022-09-03T00:29:44;3.70;;;1.82;;
23634;SDS011;11994;51.038;16.974;2022-09-03T00:35:40;5.92;;;1.47;;
23634;SDS011;11994;51.038;16.974;2022-09-03T00:38:20;3.65;;;1.60;;
23634;SDS011;11994;51.038;16.974;2022-09-03T00:40:55;3.80;;;1.70;;
23634;SDS011;11994;51.038;16.974;2022-09-03T00:55:34;6.83;;;1.40;;
23634;SDS011;11994;51.038;16.974;2022-09-03T01:01:27;4.15;;;1.20;;
23634;SDS011;11994;51.038;16.974;2022-09-03T01:07:32;5.95;;;1.60;;
23634;SDS011;11994;51.038;16.974;2022-09-03T01:10:13;3.05;;;1.55;;
23634;SDS011;11994;51.038;16.974;2022-09-03T01:35:43;3.92;;;1.55;;
23634;SDS011;11994;51.038;16.974;2022-09-03T01:38:26;5.08;;;2.10;;
23634;SDS011;11994;51.038;16.974;2022-09-03T01:44:07;4.90;;;2.08;;
23634;SDS011;11994;51.038;16.974;2022-09-03T01:47:03;5.17;;;1.92;;
23634;SDS011;11994;51.038;16.974;2022-09-03T01:58:10;4.87;;;1.77;;
23634;SDS011;11994;51.038;16.974;2022-09-03T02:00:46;4.60;;;1.98;;
23634;SDS011;11994;51.038;16.974;2022-09-03T02:03:16;7.95;;;1.92;;
23634;SDS011;11994;51.038;16.974;2022-09-03T02:05:42;4.22;;;1.85;;
23634;SDS011;11994;51.038;16.974;2022-09-03T02:08:10;9.28;;;2.00;;
23634;SDS011;11994;51.038;16.974;2022-09-03T02:10:43;3.52;;;1.70;;
23634;SDS011;11994;51.038;16.974;2022-09-03T02:16:09;4.00;;;1.85;;
23634;SDS011;11994;51.038;16.974;2022-09-03T02:18:43;3.75;;;1.70;;
23634;SDS011;11994;51.038;16.974;2022-09-03T02:21:13;3.50;;;1.62;;
23634;SDS011;11994;51.038;16.974;2022-09-03T02:23:44;4.65;;;1.85;;
23634;SDS011;11994;51.038;16.974;2022-09-03T02:26:13;7.75;;;2.10;;
23634;SDS011;11994;51.038;16.974;2022-09-03T02:28:45;3.08;;;1.52;;
23634;SDS011;11994;51.038;16.974;2022-09-03T02:31:13;3.62;;;1.62;;
23634;SDS011;11994;51.038;16.974;2022-09-03T02:33:39;3.37;;;1.70;;
23634;SDS011;11994;51.038;16.974;2022-09-03T02:36:11;3.33;;;1.77;;
23634;SDS011;11994;51.038;16.974;2022-09-03T02:38:42;4.45;;;1.90;;
23634;SDS011;11994;51.038;16.974;2022-09-03T02:41:09;5.75;;;1.55;;
23634;SDS011;11994;51.038;16.974;2022-09-03T02:43:38;3.37;;;1.50;;
23634;SDS011;11994;51.038;16.974;2022-09-03T02:46:39;5.05;;;1.95;;
23634;SDS011;11994;51.038;16.974;2022-09-03T02:49:09;3.90;;;1.72;;
23634;SDS011;11994;51.038;16.974;2022-09-03T02:51:36;4.85;;;1.72;;
23634;SDS011;11994;51.038;16.974;2022-09-03T02:54:07;3.62;;;1.92;;
23634;SDS011;11994;51.038;16.974;2022-09-03T02:56:34;4.00;;;1.70;;
23634;SDS011;11994;51.038;16.974;2022-09-03T02:59:02;4.35;;;1.82;;
23634;SDS011;11994;51.038;16.974;2022-09-03T03:01:30;4.40;;;2.10;;
23634;SDS011;11994;51.038;16.974;2022-09-03T03:03:56;4.70;;;2.10;;
23634;SDS011;11994;51.038;16.974;2022-09-03T03:06:22;4.97;;;2.10;;
23634;SDS011;11994;51.038;16.974;2022-09-03T03:08:48;9.78;;;2.05;;
23634;SDS011;11994;51.038;16.974;2022-09-03T03:11:16;4.85;;;2.20;;
23634;SDS011;11994;51.038;16.974;2022-09-03T03:13:47;3.33;;;1.90;;
23634;SDS011;11994;51.038;16.974;2022-09-03T03:16:11;4.55;;;1.92;;
23634;SDS011;11994;51.038;16.974;2022-09-03T03:18:39;5.60;;;2.00;;
23634;SDS011;11994;51.038;16.974;2022-09-03T03:21:10;4.45;;;1.72;;
23634;SDS011;11994;51.038;16.974;2022-09-03T03:23:38;4.47;;;1.80;;
23634;SDS011;11994;51.038;16.974;2022-09-03T03:26:06;3.87;;;2.08;;
23634;SDS011;11994;51.038;16.974;2022-09-03T03:28:35;5.80;;;1.87;;
23634;SDS011;11994;51.038;16.974;2022-09-03T03:31:05;10.80;;;2.42;;
23634;SDS011;11994;51.038;16.974;2022-09-03T03:33:34;8.13;;;2.10;;
23634;SDS011;11994;51.038;16.974;2022-09-03T03:36:04;4.20;;;2.12;;
23634;SDS011;11994;51.038;16.974;2022-09-03T03:38:35;5.75;;;2.10;;
23634;SDS011;11994;51.038;16.974;2022-09-03T03:43:39;3.98;;;2.02;;
23634;SDS011;11994;51.038;16.974;2022-09-03T03:46:06;5.72;;;1.87;;
23634;SDS011;11994;51.038;16.974;2022-09-03T03:48:32;4.42;;;1.87;;
23634;SDS011;11994;51.038;16.974;2022-09-03T03:51:00;7.05;;;2.50;;
23634;SDS011;11994;51.038;16.974;2022-09-03T03:53:33;4.33;;;2.33;;
23634;SDS011;11994;51.038;16.974;2022-09-03T03:55:59;7.50;;;2.90;;
23634;SDS011;11994;51.038;16.974;2022-09-03T03:58:28;4.72;;;2.58;;
23634;SDS011;11994;51.038;16.974;2022-09-03T04:01:02;6.30;;;2.15;;
23634;SDS011;11994;51.038;16.974;2022-09-03T04:03:38;6.05;;;2.27;;
23634;SDS011;11994;51.038;16.974;2022-09-03T04:06:06;3.65;;;2.20;;
23634;SDS011;11994;51.038;16.974;2022-09-03T04:08:36;5.22;;;2.30;;
23634;SDS011;11994;51.038;16.974;2022-09-03T04:11:05;4.12;;;2.10;;
23634;SDS011;11994;51.038;16.974;2022-09-03T04:13:35;4.80;;;2.27;;
23634;SDS011;11994;51.038;16.974;2022-09-03T04:21:04;8.10;;;2.37;;
23634;SDS011;11994;51.038;16.974;2022-09-03T04:23:33;6.47;;;2.42;;
23634;SDS011;11994;51.038;16.974;2022-09-03T04:26:02;5.25;;;2.25;;
23634;SDS011;11994;51.038;16.974;2022-09-03T04:28:29;5.70;;;2.12;;
23634;SDS011;11994;51.038;16.974;2022-09-03T04:31:04;5.10;;;2.20;;
23634;SDS011;11994;51.038;16.974;2022-09-03T04:33:30;5.97;;;2.30;;
23634;SDS011;11994;51.038;16.974;2022-09-03T04:36:02;4.78;;;2.40;;
23634;SDS011;11994;51.038;16.974;2022-09-03T04:38:35;5.42;;;2.30;;
23634;SDS011;11994;51.038;16.974;2022-09-03T04:41:05;9.80;;;2.37;;
23634;SDS011;11994;51.038;16.974;2022-09-03T04:43:33;3.83;;;2.22;;
23634;SDS011;11994;51.038;16.974;2022-09-03T04:46:00;4.67;;;2.20;;
23634;SDS011;11994;51.038;16.974;2022-09-03T04:48:29;6.40;;;2.17;;
23634;SDS011;11994;51.038;16.974;2022-09-03T04:51:07;5.12;;;2.45;;
23634;SDS011;11994;51.038;16.974;2022-09-03T04:53:38;6.58;;;2.70;;
23634;SDS011;11994;51.038;16.974;2022-09-03T04:56:23;4.97;;;2.30;;
23634;SDS011;11994;51.038;16.974;2022-09-03T04:58:52;6.20;;;2.40;;
23634;SDS011;11994;51.038;16.974;2022-09-03T05:01:23;5.95;;;2.35;;
23634;SDS011;11994;51.038;16.974;2022-09-03T05:03:51;6.33;;;2.12;;
23634;SDS011;11994;51.038;16.974;2022-09-03T05:06:18;3.60;;;2.40;;
23634;SDS011;11994;51.038;16.974;2022-09-03T05:08:48;4.15;;;2.17;;
23634;SDS011;11994;51.038;16.974;2022-09-03T05:11:15;4.42;;;2.22;;
23634;SDS011;11994;51.038;16.974;2022-09-03T05:13:41;6.33;;;2.80;;
23634;SDS011;11994;51.038;16.974;2022-09-03T05:16:09;4.30;;;2.58;;
23634;SDS011;11994;51.038;16.974;2022-09-03T05:18:37;7.15;;;2.58;;
23634;SDS011;11994;51.038;16.974;2022-09-03T05:21:06;5.33;;;2.60;;
23634;SDS011;11994;51.038;16.974;2022-09-03T05:23:35;4.30;;;2.10;;
23634;SDS011;11994;51.038;16.974;2022-09-03T05:26:04;5.95;;;2.50;;
23634;SDS011;11994;51.038;16.974;2022-09-03T05:28:37;7.05;;;2.30;;
23634;SDS011;11994;51.038;16.974;2022-09-03T05:31:06;6.42;;;2.40;;
23634;SDS011;11994;51.038;16.974;2022-09-03T05:33:35;8.20;;;2.52;;
23634;SDS011;11994;51.038;16.974;2022-09-03T05:36:04;6.72;;;2.27;;
23634;SDS011;11994;51.038;16.974;2022-09-03T05:38:34;11.75;;;2.70;;
23634;SDS011;11994;51.038;16.974;2022-09-03T05:41:00;4.42;;;2.30;;
23634;SDS011;11994;51.038;16.974;2022-09-03T05:43:30;4.33;;;2.08;;
23634;SDS011;11994;51.038;16.974;2022-09-03T05:46:02;4.17;;;2.17;;
23634;SDS011;11994;51.038;16.974;2022-09-03T05:48:29;5.42;;;2.50;;
23634;SDS011;11994;51.038;16.974;2022-09-03T05:51:02;4.62;;;1.92;;
23634;SDS011;11994;51.038;16.974;2022-09-03T05:53:27;3.47;;;1.90;;
23634;SDS011;11994;51.038;16.974;2022-09-03T05:55:55;4.92;;;2.33;;
23634;SDS011;11994;51.038;16.974;2022-09-03T06:00:59;5.05;;;2.10;;
23634;SDS011;11994;51.038;16.974;2022-09-03T06:03:40;5.42;;;2.20;;
23634;SDS011;11994;51.038;16.974;2022-09-03T06:06:08;4.47;;;1.90;;
23634;SDS011;11994;51.038;16.974;2022-09-03T06:08:35;4.65;;;2.20;;
23634;SDS011;11994;51.038;16.974;2022-09-03T06:11:04;6.30;;;2.40;;
23634;SDS011;11994;51.038;16.974;2022-09-03T06:13:32;3.60;;;2.10;;
23634;SDS011;11994;51.038;16.974;2022-09-03T06:15:59;5.85;;;2.22;;
23634;SDS011;11994;51.038;16.974;2022-09-03T06:18:28;4.85;;;2.17;;
23634;SDS011;11994;51.038;16.974;2022-09-03T06:20:55;7.35;;;2.30;;
23634;SDS011;11994;51.038;16.974;2022-09-03T06:26:09;5.97;;;2.25;;
23634;SDS011;11994;51.038;16.974;2022-09-03T06:28:41;5.35;;;2.20;;
23634;SDS011;11994;51.038;16.974;2022-09-03T06:31:12;4.33;;;2.02;;
23634;SDS011;11994;51.038;16.974;2022-09-03T06:33:42;6.03;;;2.33;;
23634;SDS011;11994;51.038;16.974;2022-09-03T06:36:14;5.47;;;2.22;;
23634;SDS011;11994;51.038;16.974;2022-09-03T06:38:43;3.75;;;2.20;;
23634;SDS011;11994;51.038;16.974;2022-09-03T06:43:45;5.12;;;2.12;;
23634;SDS011;11994;51.038;16.974;2022-09-03T06:46:14;5.65;;;2.30;;
23634;SDS011;11994;51.038;16.974;2022-09-03T06:48:42;7.33;;;2.25;;
23634;SDS011;11994;51.038;16.974;2022-09-03T06:51:17;8.20;;;2.60;;
23634;SDS011;11994;51.038;16.974;2022-09-03T06:53:43;5.53;;;2.60;;
23634;SDS011;11994;51.038;16.974;2022-09-03T06:56:12;6.30;;;2.60;;
23634;SDS011;11994;51.038;16.974;2022-09-03T06:58:42;5.60;;;2.20;;
23634;SDS011;11994;51.038;16.974;2022-09-03T07:03:43;6.30;;;2.40;;
23634;SDS011;11994;51.038;16.974;2022-09-03T07:06:14;8.28;;;2.27;;
23634;SDS011;11994;51.038;16.974;2022-09-03T07:08:43;7.90;;;2.30;;
23634;SDS011;11994;51.038;16.974;2022-09-03T07:11:14;12.43;;;2.70;;
23634;SDS011;11994;51.038;16.974;2022-09-03T07:13:44;7.25;;;2.58;;
23634;SDS011;11994;51.038;16.974;2022-09-03T07:16:14;6.97;;;2.60;;
23634;SDS011;11994;51.038;16.974;2022-09-03T07:18:45;5.85;;;2.60;;
23634;SDS011;11994;51.038;16.974;2022-09-03T07:21:14;7.28;;;2.90;;
23634;SDS011;11994;51.038;16.974;2022-09-03T07:23:43;5.22;;;2.77;;
23634;SDS011;11994;51.038;16.974;2022-09-03T07:26:12;6.40;;;2.22;;
23634;SDS011;11994;51.038;16.974;2022-09-03T07:28:41;4.40;;;2.70;;
23634;SDS011;11994;51.038;16.974;2022-09-03T07:33:48;7.22;;;2.65;;
23634;SDS011;11994;51.038;16.974;2022-09-03T07:36:14;7.55;;;2.58;;
23634;SDS011;11994;51.038;16.974;2022-09-03T07:38:42;5.90;;;2.50;;
23634;SDS011;11994;51.038;16.974;2022-09-03T07:41:10;5.53;;;2.65;;
23634;SDS011;11994;51.038;16.974;2022-09-03T07:43:42;8.10;;;2.92;;
23634;SDS011;11994;51.038;16.974;2022-09-03T07:46:13;6.17;;;2.50;;
23634;SDS011;11994;51.038;16.974;2022-09-03T07:48:45;8.18;;;3.10;;
23634;SDS011;11994;51.038;16.974;2022-09-03T07:51:13;5.87;;;2.60;;
23634;SDS011;11994;51.038;16.974;2022-09-03T07:53:39;7.85;;;2.67;;
23634;SDS011;11994;51.038;16.974;2022-09-03T07:56:06;5.95;;;3.33;;
23634;SDS011;11994;51.038;16.974;2022-09-03T07:58:35;12.07;;;3.98;;
23634;SDS011;11994;51.038;16.974;2022-09-03T08:01:10;6.42;;;2.80;;
23634;SDS011;11994;51.038;16.974;2022-09-03T08:03:41;9.03;;;3.37;;
23634;SDS011;11994;51.038;16.974;2022-09-03T08:06:11;7.08;;;3.10;;
23634;SDS011;11994;51.038;16.974;2022-09-03T08:08:39;9.15;;;3.45;;
23634;SDS011;11994;51.038;16.974;2022-09-03T08:11:06;7.80;;;3.60;;
23634;SDS011;11994;51.038;16.974;2022-09-03T08:13:45;11.03;;;3.50;;
23634;SDS011;11994;51.038;16.974;2022-09-03T08:16:16;9.25;;;3.52;;
23634;SDS011;11994;51.038;16.974;2022-09-03T08:18:43;6.30;;;3.22;;
23634;SDS011;11994;51.038;16.974;2022-09-03T08:21:16;6.67;;;3.08;;
23634;SDS011;11994;51.038;16.974;2022-09-03T08:23:48;7.65;;;3.40;;
23634;SDS011;11994;51.038;16.974;2022-09-03T08:26:17;9.15;;;3.50;;
23634;SDS011;11994;51.038;16.974;2022-09-03T08:28:45;8.50;;;3.77;;
23634;SDS011;11994;51.038;16.974;2022-09-03T08:33:44;7.00;;;3.22;;
23634;SDS011;11994;51.038;16.974;2022-09-03T08:36:17;9.05;;;3.15;;
23634;SDS011;11994;51.038;16.974;2022-09-03T08:38:54;7.17;;;3.60;;
23634;SDS011;11994;51.038;16.974;2022-09-03T08:47:28;6.85;;;3.30;;
23634;SDS011;11994;51.038;16.974;2022-09-03T08:52:56;7.03;;;3.42;;
23634;SDS011;11994;51.038;16.974;2022-09-03T08:58:30;8.25;;;3.87;;
23634;SDS011;11994;51.038;16.974;2022-09-03T09:00:59;10.58;;;4.00;;
23634;SDS011;11994;51.038;16.974;2022-09-03T09:15:39;6.78;;;3.42;;
23634;SDS011;11994;51.038;16.974;2022-09-03T09:18:35;7.15;;;3.35;;
23634;SDS011;11994;51.038;16.974;2022-09-03T09:21:11;7.35;;;3.50;;
23634;SDS011;11994;51.038;16.974;2022-09-03T09:23:47;7.53;;;3.40;;
23634;SDS011;11994;51.038;16.974;2022-09-03T09:26:20;5.42;;;2.77;;
23634;SDS011;11994;51.038;16.974;2022-09-03T09:28:52;7.87;;;3.27;;
23634;SDS011;11994;51.038;16.974;2022-09-03T09:31:24;10.93;;;3.40;;
23634;SDS011;11994;51.038;16.974;2022-09-03T09:33:55;7.33;;;3.12;;
23634;SDS011;11994;51.038;16.974;2022-09-03T09:36:31;8.95;;;3.02;;
23634;SDS011;11994;51.038;16.974;2022-09-03T09:39:14;7.42;;;2.77;;
23634;SDS011;11994;51.038;16.974;2022-09-03T09:41:41;8.38;;;2.98;;
23634;SDS011;11994;51.038;16.974;2022-09-03T09:44:16;5.80;;;2.92;;
23634;SDS011;11994;51.038;16.974;2022-09-03T09:46:44;7.15;;;2.90;;
23634;SDS011;11994;51.038;16.974;2022-09-03T09:52:00;7.62;;;3.00;;
23634;SDS011;11994;51.038;16.974;2022-09-03T09:54:36;6.55;;;2.98;;
23634;SDS011;11994;51.038;16.974;2022-09-03T09:57:04;9.33;;;2.83;;
23634;SDS011;11994;51.038;16.974;2022-09-03T09:59:33;6.83;;;2.85;;
23634;SDS011;11994;51.038;16.974;2022-09-03T10:02:03;5.62;;;2.90;;
23634;SDS011;11994;51.038;16.974;2022-09-03T10:04:39;10.60;;;3.08;;
23634;SDS011;11994;51.038;16.974;2022-09-03T10:07:22;9.90;;;2.90;;
23634;SDS011;11994;51.038;16.974;2022-09-03T10:12:43;8.25;;;2.60;;
23634;SDS011;11994;51.038;16.974;2022-09-03T10:15:46;7.05;;;2.90;;
23634;SDS011;11994;51.038;16.974;2022-09-03T10:18:23;6.85;;;2.65;;
23634;SDS011;11994;51.038;16.974;2022-09-03T10:23:55;5.47;;;2.40;;
23634;SDS011;11994;51.038;16.974;2022-09-03T10:26:55;6.10;;;2.98;;
23634;SDS011;11994;51.038;16.974;2022-09-03T10:29:22;4.37;;;2.75;;
23634;SDS011;11994;51.038;16.974;2022-09-03T10:34:46;9.38;;;2.90;;
23634;SDS011;11994;51.038;16.974;2022-09-03T10:37:54;5.20;;;2.98;;
23634;SDS011;11994;51.038;16.974;2022-09-03T10:40:23;5.37;;;2.65;;
23634;SDS011;11994;51.038;16.974;2022-09-03T10:48:53;5.70;;;2.30;;
23634;SDS011;11994;51.038;16.974;2022-09-03T10:54:50;5.72;;;2.45;;
23634;SDS011;11994;51.038;16.974;2022-09-03T11:00:19;5.80;;;2.40;;
23634;SDS011;11994;51.038;16.974;2022-09-03T11:09:42;7.90;;;2.58;;
23634;SDS011;11994;51.038;16.974;2022-09-03T11:11:43;6.17;;;2.35;;
23634;SDS011;11994;51.038;16.974;2022-09-03T11:14:10;5.65;;;2.20;;
23634;SDS011;11994;51.038;16.974;2022-09-03T11:19:12;4.15;;;2.37;;
23634;SDS011;11994;51.038;16.974;2022-09-03T11:21:43;8.83;;;2.58;;
23634;SDS011;11994;51.038;16.974;2022-09-03T11:26:44;5.65;;;2.27;;
23634;SDS011;11994;51.038;16.974;2022-09-03T11:32:19;5.55;;;2.92;;
23634;SDS011;11994;51.038;16.974;2022-09-03T11:34:52;4.80;;;2.35;;
23634;SDS011;11994;51.038;16.974;2022-09-03T11:42:45;6.78;;;2.67;;
23634;SDS011;11994;51.038;16.974;2022-09-03T11:47:55;7.53;;;2.80;;
23634;SDS011;11994;51.038;16.974;2022-09-03T11:50:22;5.60;;;2.62;;
23634;SDS011;11994;51.038;16.974;2022-09-03T11:58:28;6.58;;;2.50;;
23634;SDS011;11994;51.038;16.974;2022-09-03T12:01:03;4.87;;;2.67;;
23634;SDS011;11994;51.038;16.974;2022-09-03T12:03:41;6.95;;;3.08;;
23634;SDS011;11994;51.038;16.974;2022-09-03T12:15:41;6.62;;;2.72;;
23634;SDS011;11994;51.038;16.974;2022-09-03T12:18:23;6.35;;;2.60;;
23634;SDS011;11994;51.038;16.974;2022-09-03T12:25:59;6.20;;;2.60;;
23634;SDS011;11994;51.038;16.974;2022-09-03T12:28:33;6.20;;;2.58;;
23634;SDS011;11994;51.038;16.974;2022-09-03T12:31:07;6.92;;;3.15;;
23634;SDS011;11994;51.038;16.974;2022-09-03T12:33:50;6.53;;;2.70;;
23634;SDS011;11994;51.038;16.974;2022-09-03T12:36:20;6.80;;;2.75;;
23634;SDS011;11994;51.038;16.974;2022-09-03T12:38:47;7.08;;;2.90;;
23634;SDS011;11994;51.038;16.974;2022-09-03T12:41:27;6.05;;;2.95;;
23634;SDS011;11994;51.038;16.974;2022-09-03T12:43:56;8.08;;;2.75;;
23634;SDS011;11994;51.038;16.974;2022-09-03T12:46:29;5.80;;;2.50;;
23634;SDS011;11994;51.038;16.974;2022-09-03T12:49:04;5.60;;;2.58;;
23634;SDS011;11994;51.038;16.974;2022-09-03T12:51:40;7.12;;;3.65;;
23634;SDS011;11994;51.038;16.974;2022-09-03T12:54:05;6.35;;;2.70;;
23634;SDS011;11994;51.038;16.974;2022-09-03T12:56:36;8.15;;;5.40;;
23634;SDS011;11994;51.038;16.974;2022-09-03T12:59:05;7.97;;;5.30;;
23634;SDS011;11994;51.038;16.974;2022-09-03T13:01:43;6.05;;;3.52;;
23634;SDS011;11994;51.038;16.974;2022-09-03T13:04:18;6.92;;;2.77;;
23634;SDS011;11994;51.038;16.974;2022-09-03T13:06:58;7.08;;;2.83;;
23634;SDS011;11994;51.038;16.974;2022-09-03T13:09:51;6.58;;;2.50;;
23634;SDS011;11994;51.038;16.974;2022-09-03T13:12:30;6.90;;;2.80;;
23634;SDS011;11994;51.038;16.974;2022-09-03T13:14:57;6.67;;;2.85;;
23634;SDS011;11994;51.038;16.974;2022-09-03T13:17:47;7.45;;;2.47;;
23634;SDS011;11994;51.038;16.974;2022-09-03T13:20:23;5.42;;;2.87;;
23634;SDS011;11994;51.038;16.974;2022-09-03T13:29:50;7.55;;;2.70;;
23634;SDS011;11994;51.038;16.974;2022-09-03T13:32:28;8.40;;;3.08;;
23634;SDS011;11994;51.038;16.974;2022-09-03T13:38:38;6.42;;;2.92;;
23634;SDS011;11994;51.038;16.974;2022-09-03T13:41:10;5.25;;;3.27;;
23634;SDS011;11994;51.038;16.974;2022-09-03T13:46:34;5.87;;;3.08;;
23634;SDS011;11994;51.038;16.974;2022-09-03T13:49:38;9.48;;;2.72;;
23634;SDS011;11994;51.038;16.974;2022-09-03T13:52:40;8.15;;;2.85;;
23634;SDS011;11994;51.038;16.974;2022-09-03T13:55:45;4.58;;;2.72;;
23634;SDS011;11994;51.038;16.974;2022-09-03T14:04:01;8.98;;;4.25;;
23634;SDS011;11994;51.038;16.974;2022-09-03T14:06:40;4.65;;;2.72;;
23634;SDS011;11994;51.038;16.974;2022-09-03T14:09:13;5.65;;;2.83;;
23634;SDS011;11994;51.038;16.974;2022-09-03T14:12:12;8.58;;;3.75;;
23634;SDS011;11994;51.038;16.974;2022-09-03T14:14:51;9.20;;;3.52;;
23634;SDS011;11994;51.038;16.974;2022-09-03T14:20:44;10.65;;;3.60;;
23634;SDS011;11994;51.038;16.974;2022-09-03T14:23:24;8.40;;;3.67;;
23634;SDS011;11994;51.038;16.974;2022-09-03T14:25:54;6.87;;;3.17;;
23634;SDS011;11994;51.038;16.974;2022-09-03T14:28:33;10.95;;;3.27;;
23634;SDS011;11994;51.038;16.974;2022-09-03T14:34:05;7.60;;;3.12;;
23634;SDS011;11994;51.038;16.974;2022-09-03T14:39:52;8.33;;;3.12;;
23634;SDS011;11994;51.038;16.974;2022-09-03T14:42:26;6.30;;;3.00;;
23634;SDS011;11994;51.038;16.974;2022-09-03T14:48:13;10.58;;;3.70;;
23634;SDS011;11994;51.038;16.974;2022-09-03T14:51:00;5.83;;;3.22;;
23634;SDS011;11994;51.038;16.974;2022-09-03T14:56:53;6.72;;;3.40;;
23634;SDS011;11994;51.038;16.974;2022-09-03T15:00:01;7.20;;;3.20;;
23634;SDS011;11994;51.038;16.974;2022-09-03T15:08:43;5.83;;;3.25;;
23634;SDS011;11994;51.038;16.974;2022-09-03T15:11:44;7.15;;;3.30;;
23634;SDS011;11994;51.038;16.974;2022-09-03T15:14:25;7.15;;;3.05;;
23634;SDS011;11994;51.038;16.974;2022-09-03T15:17:15;8.40;;;3.62;;
23634;SDS011;11994;51.038;16.974;2022-09-03T15:22:33;7.20;;;3.30;;
23634;SDS011;11994;51.038;16.974;2022-09-03T15:25:24;6.65;;;3.10;;
23634;SDS011;11994;51.038;16.974;2022-09-03T15:28:26;8.25;;;3.55;;
23634;SDS011;11994;51.038;16.974;2022-09-03T15:36:49;6.00;;;3.12;;
23634;SDS011;11994;51.038;16.974;2022-09-03T15:39:25;6.22;;;3.22;;
23634;SDS011;11994;51.038;16.974;2022-09-03T15:44:22;5.58;;;3.15;;
23634;SDS011;11994;51.038;16.974;2022-09-03T15:46:59;7.50;;;3.40;;
23634;SDS011;11994;51.038;16.974;2022-09-03T15:52:07;8.45;;;3.47;;
23634;SDS011;11994;51.038;16.974;2022-09-03T15:57:45;8.20;;;3.90;;
23634;SDS011;11994;51.038;16.974;2022-09-03T16:00:23;5.70;;;3.37;;
23634;SDS011;11994;51.038;16.974;2022-09-03T16:02:51;8.00;;;3.60;;
23634;SDS011;11994;51.038;16.974;2022-09-03T16:08:43;7.75;;;3.33;;
23634;SDS011;11994;51.038;16.974;2022-09-03T16:11:15;6.90;;;3.15;;
23634;SDS011;11994;51.038;16.974;2022-09-03T16:19:51;7.37;;;3.37;;
23634;SDS011;11994;51.038;16.974;2022-09-03T16:25:52;6.83;;;3.12;;
23634;SDS011;11994;51.038;16.974;2022-09-03T16:28:02;6.70;;;3.60;;
23634;SDS011;11994;51.038;16.974;2022-09-03T16:30:36;5.58;;;3.58;;
23634;SDS011;11994;51.038;16.974;2022-09-03T16:33:11;4.80;;;3.10;;
23634;SDS011;11994;51.038;16.974;2022-09-03T16:35:51;7.70;;;3.35;;
23634;SDS011;11994;51.038;16.974;2022-09-03T16:41:34;6.72;;;3.40;;
23634;SDS011;11994;51.038;16.974;2022-09-03T16:58:51;6.53;;;3.90;;
23634;SDS011;11994;51.038;16.974;2022-09-03T17:22:07;10.13;;;3.77;;
23634;SDS011;11994;51.038;16.974;2022-09-03T17:27:24;9.13;;;3.60;;
23634;SDS011;11994;51.038;16.974;2022-09-03T17:30:24;7.85;;;3.33;;
23634;SDS011;11994;51.038;16.974;2022-09-03T17:38:54;9.30;;;4.30;;
23634;SDS011;11994;51.038;16.974;2022-09-03T17:41:53;9.18;;;3.83;;
23634;SDS011;11994;51.038;16.974;2022-09-03T17:48:00;9.05;;;3.60;;
23634;SDS011;11994;51.038;16.974;2022-09-03T17:53:23;7.92;;;3.80;;
23634;SDS011;11994;51.038;16.974;2022-09-03T17:56:08;7.65;;;3.70;;
23634;SDS011;11994;51.038;16.974;2022-09-03T17:58:38;7.35;;;3.75;;
23634;SDS011;11994;51.038;16.974;2022-09-03T18:09:20;10.00;;;4.62;;
23634;SDS011;11994;51.038;16.974;2022-09-03T18:17:44;8.55;;;4.42;;
23634;SDS011;11994;51.038;16.974;2022-09-03T18:20:26;6.25;;;3.65;;
23634;SDS011;11994;51.038;16.974;2022-09-03T18:23:20;8.65;;;4.03;;
23634;SDS011;11994;51.038;16.974;2022-09-03T18:26:10;7.30;;;4.03;;
23634;SDS011;11994;51.038;16.974;2022-09-03T18:31:47;11.45;;;4.87;;
23634;SDS011;11994;51.038;16.974;2022-09-03T18:34:33;9.18;;;5.12;;
23634;SDS011;11994;51.038;16.974;2022-09-03T18:37:23;11.25;;;4.97;;
23634;SDS011;11994;51.038;16.974;2022-09-03T18:40:11;9.88;;;5.03;;
23634;SDS011;11994;51.038;16.974;2022-09-03T18:43:08;9.93;;;5.72;;
23634;SDS011;11994;51.038;16.974;2022-09-03T18:49:26;7.47;;;5.30;;
23634;SDS011;11994;51.038;16.974;2022-09-03T18:52:23;10.60;;;5.33;;
23634;SDS011;11994;51.038;16.974;2022-09-03T19:01:42;7.90;;;5.00;;
23634;SDS011;11994;51.038;16.974;2022-09-03T19:04:31;8.58;;;4.62;;
23634;SDS011;11994;51.038;16.974;2022-09-03T19:10:27;10.00;;;5.22;;
23634;SDS011;11994;51.038;16.974;2022-09-03T19:13:34;10.18;;;5.00;;
23634;SDS011;11994;51.038;16.974;2022-09-03T19:22:30;10.45;;;6.25;;
23634;SDS011;11994;51.038;16.974;2022-09-03T19:25:19;11.65;;;7.00;;
23634;SDS011;11994;51.038;16.974;2022-09-03T19:28:21;13.98;;;9.03;;
23634;SDS011;11994;51.038;16.974;2022-09-03T19:34:27;14.20;;;9.05;;
23634;SDS011;11994;51.038;16.974;2022-09-03T19:37:37;14.25;;;7.92;;
23634;SDS011;11994;51.038;16.974;2022-09-03T19:47:03;12.18;;;6.85;;
23634;SDS011;11994;51.038;16.974;2022-09-03T19:53:12;17.23;;;9.05;;
23634;SDS011;11994;51.038;16.974;2022-09-03T19:55:56;15.35;;;7.85;;
23634;SDS011;11994;51.038;16.974;2022-09-03T19:58:46;16.17;;;7.65;;
23634;SDS011;11994;51.038;16.974;2022-09-03T20:01:35;18.67;;;8.93;;
23634;SDS011;11994;51.038;16.974;2022-09-03T20:04:28;18.95;;;9.00;;
23634;SDS011;11994;51.038;16.974;2022-09-03T20:07:16;22.37;;;9.33;;
23634;SDS011;11994;51.038;16.974;2022-09-03T20:10:03;20.62;;;9.28;;
23634;SDS011;11994;51.038;16.974;2022-09-03T20:12:51;24.25;;;10.20;;
23634;SDS011;11994;51.038;16.974;2022-09-03T20:16:05;25.35;;;10.35;;
23634;SDS011;11994;51.038;16.974;2022-09-03T20:18:16;23.27;;;9.90;;
23634;SDS011;11994;51.038;16.974;2022-09-03T20:20:55;21.10;;;9.83;;
23634;SDS011;11994;51.038;16.974;2022-09-03T20:23:46;22.37;;;9.68;;
23634;SDS011;11994;51.038;16.974;2022-09-03T20:43:34;20.80;;;10.40;;
23634;SDS011;11994;51.038;16.974;2022-09-03T20:48:53;17.90;;;10.00;;
23634;SDS011;11994;51.038;16.974;2022-09-03T20:51:25;17.20;;;9.20;;
23634;SDS011;11994;51.038;16.974;2022-09-03T21:11:02;14.15;;;7.62;;
23634;SDS011;11994;51.038;16.974;2022-09-03T21:13:50;14.07;;;7.47;;
23634;SDS011;11994;51.038;16.974;2022-09-03T21:27:42;11.53;;;8.10;;
23634;SDS011;11994;51.038;16.974;2022-09-03T21:30:42;14.43;;;8.20;;
23634;SDS011;11994;51.038;16.974;2022-09-03T21:33:46;15.90;;;7.70;;
23634;SDS011;11994;51.038;16.974;2022-09-03T21:36:14;15.17;;;7.57;;
23634;SDS011;11994;51.038;16.974;2022-09-03T21:38:35;12.88;;;8.03;;
23634;SDS011;11994;51.038;16.974;2022-09-03T21:44:05;12.85;;;8.30;;
23634;SDS011;11994;51.038;16.974;2022-09-03T21:46:46;18.12;;;8.53;;
23634;SDS011;11994;51.038;16.974;2022-09-03T21:49:25;12.73;;;7.50;;
23634;SDS011;11994;51.038;16.974;2022-09-03T21:52:02;13.43;;;7.70;;
23634;SDS011;11994;51.038;16.974;2022-09-03T21:54:44;12.60;;;8.10;;
23634;SDS011;11994;51.038;16.974;2022-09-03T22:02:43;15.20;;;8.88;;
23634;SDS011;11994;51.038;16.974;2022-09-03T22:05:14;13.75;;;9.35;;